createdAt,value
2022-11-29T00:01:40.563Z,21.15
2022-11-29T00:04:10.433Z,20.02
2022-11-29T00:06:39.206Z,21.38
2022-11-29T00:09:08.958Z,22.65
2022-11-29T00:11:56.208Z,21.23
2022-11-29T00:14:25.538Z,18.10
2022-11-29T00:16:55.765Z,20.27
2022-11-29T00:19:25.495Z,18.77
2022-11-29T00:21:53.480Z,21.25
2022-11-29T00:24:21.732Z,19.83
2022-11-29T00:26:50.025Z,19.92
2022-11-29T00:29:18.473Z,19.17
2022-11-29T00:31:46.740Z,19.15
2022-11-29T00:34:14.817Z,19.98
2022-11-29T00:36:44.154Z,19.65
2022-11-29T00:39:13.116Z,18.73
2022-11-29T00:41:41.379Z,20.05
2022-11-29T00:44:09.644Z,18.75
2022-11-29T00:46:38.020Z,19.58
2022-11-29T00:49:06.252Z,20.33
2022-11-29T00:51:34.230Z,18.05
2022-11-29T00:54:03.677Z,19.38
2022-11-29T00:56:31.709Z,20.58
2022-11-29T00:58:59.692Z,21.27
2022-11-29T01:01:27.763Z,19.70
2022-11-29T01:03:55.823Z,19.55
2022-11-29T01:06:23.777Z,20.15
2022-11-29T01:08:51.773Z,20.38
2022-11-29T01:11:23.143Z,19.25
2022-11-29T01:13:52.765Z,19.17
2022-11-29T01:16:20.948Z,19.75
2022-11-29T01:18:53.011Z,20.40
2022-11-29T01:21:22.810Z,18.63
2022-11-29T01:23:52.105Z,22.38
2022-11-29T01:26:24.223Z,20.48
2022-11-29T01:28:54.424Z,19.60
2022-11-29T01:31:24.634Z,20.00
2022-11-29T01:33:55.685Z,19.65
2022-11-29T01:36:23.764Z,19.50
2022-11-29T01:38:51.878Z,19.67
2022-11-29T01:41:23.279Z,19.73
2022-11-29T01:44:03.559Z,18.85
2022-11-29T01:46:33.358Z,19.40
2022-11-29T01:49:09.008Z,19.60
2022-11-29T01:51:38.604Z,19.17
2022-11-29T01:54:08.315Z,18.65
2022-11-29T01:56:39.851Z,17.58
2022-11-29T01:59:12.433Z,18.25
2022-11-29T02:01:40.476Z,17.92
2022-11-29T02:04:09.559Z,19.05
2022-11-29T02:06:38.476Z,19.08
2022-11-29T02:09:16.308Z,17.77
2022-11-29T02:12:16.545Z,18.90
2022-11-29T02:14:56.801Z,18.85
2022-11-29T02:17:35.475Z,19.30
2022-11-29T02:20:24.134Z,16.48
2022-11-29T02:22:59.229Z,17.98
2022-11-29T02:25:41.217Z,19.67
2022-11-29T02:28:40.661Z,18.58
2022-11-29T02:31:51.126Z,17.38
2022-11-29T02:34:39.305Z,15.32
2022-11-29T02:37:22.789Z,17.77
2022-11-29T02:40:04.906Z,16.83
2022-11-29T02:43:00.134Z,16.05
2022-11-29T02:45:42.961Z,14.90
2022-11-29T02:48:29.367Z,16.75
2022-11-29T02:51:05.375Z,17.05
2022-11-29T02:56:13.287Z,15.93
2022-11-29T02:58:48.642Z,17.83
2022-11-29T03:01:21.184Z,17.90
2022-11-29T03:03:56.001Z,18.17
2022-11-29T03:06:37.099Z,19.17
2022-11-29T03:09:12.750Z,18.02
2022-11-29T03:11:49.243Z,17.52
2022-11-29T03:14:24.925Z,18.17
2022-11-29T03:17:01.804Z,20.80
2022-11-29T03:19:47.886Z,18.60
2022-11-29T03:22:33.588Z,17.48
2022-11-29T03:25:08.514Z,17.60
2022-11-29T03:27:42.163Z,17.52
2022-11-29T03:30:12.374Z,17.10
2022-11-29T03:32:51.691Z,16.42
2022-11-29T03:35:25.562Z,17.55
2022-11-29T03:38:02.518Z,17.52
2022-11-29T03:40:36.605Z,16.15
2022-11-29T03:43:08.855Z,17.45
2022-11-29T03:45:45.055Z,17.77
2022-11-29T03:48:18.566Z,17.30
2022-11-29T03:50:54.209Z,18.15
2022-11-29T03:53:32.984Z,17.23
2022-11-29T03:56:03.002Z,17.80
2022-11-29T03:58:40.557Z,17.10
2022-11-29T04:01:46.220Z,17.15
2022-11-29T04:04:44.190Z,18.05
2022-11-29T04:07:32.454Z,17.27
2022-11-29T04:10:33.996Z,16.10
2022-11-29T04:13:21.857Z,16.80
2022-11-29T04:16:07.653Z,15.75
2022-11-29T04:19:00.166Z,15.05
2022-11-29T04:21:50.412Z,16.20
2022-11-29T04:24:53.358Z,16.00
2022-11-29T04:27:41.557Z,15.65
2022-11-29T04:30:14.897Z,16.30
2022-11-29T04:33:29.106Z,17.02
2022-11-29T04:36:13.911Z,17.67
2022-11-29T04:39:16.092Z,17.50
2022-11-29T04:42:10.158Z,16.33
2022-11-29T04:45:09.287Z,17.75
2022-11-29T04:47:52.209Z,15.30
2022-11-29T04:50:34.327Z,16.88
2022-11-29T04:53:26.369Z,17.02
2022-11-29T04:56:05.377Z,17.30
2022-11-29T04:58:38.744Z,16.63
2022-11-29T05:01:16.181Z,15.70
2022-11-29T05:03:56.725Z,16.50
2022-11-29T05:06:30.500Z,16.08
2022-11-29T05:09:08.254Z,15.02
2022-11-29T05:11:50.327Z,17.27
2022-11-29T05:14:29.638Z,15.95
2022-11-29T05:17:20.254Z,17.98
2022-11-29T05:20:02.200Z,16.35
2022-11-29T05:22:37.283Z,18.60
2022-11-29T05:25:31.381Z,18.80
2022-11-29T05:28:10.246Z,19.38
2022-11-29T05:31:05.156Z,18.02
2022-11-29T05:33:53.635Z,18.73
2022-11-29T05:36:29.165Z,18.33
2022-11-29T05:39:10.336Z,18.52
2022-11-29T05:41:49.452Z,17.38
2022-11-29T05:44:25.580Z,18.10
2022-11-29T05:46:58.356Z,18.60
2022-11-29T05:49:37.283Z,17.83
2022-11-29T05:52:21.452Z,18.13
2022-11-29T05:55:05.135Z,18.73
2022-11-29T05:57:42.552Z,19.05
2022-11-29T06:00:12.876Z,21.15
2022-11-29T06:02:50.020Z,21.23
2022-11-29T06:05:27.050Z,23.00
2022-11-29T06:07:59.777Z,24.52
2022-11-29T06:10:33.590Z,23.20
2022-11-29T06:13:22.056Z,21.45
2022-11-29T06:16:23.875Z,20.92
2022-11-29T06:19:21.378Z,20.45
2022-11-29T06:22:00.650Z,19.73
2022-11-29T06:24:46.359Z,21.38
2022-11-29T06:27:40.532Z,18.40
2022-11-29T06:30:12.359Z,19.67
2022-11-29T06:32:50.827Z,18.30
2022-11-29T06:35:40.986Z,19.42
2022-11-29T06:38:18.161Z,17.70
2022-11-29T06:40:48.710Z,18.55
2022-11-29T06:43:17.717Z,19.95
2022-11-29T06:45:50.190Z,18.75
2022-11-29T06:48:24.107Z,20.60
2022-11-29T06:51:01.773Z,20.75
2022-11-29T06:53:41.343Z,22.75
2022-11-29T06:56:16.869Z,20.23
2022-11-29T06:58:57.576Z,18.02
2022-11-29T07:01:35.058Z,16.60
2022-11-29T07:04:25.226Z,15.70
2022-11-29T07:06:53.901Z,15.63
2022-11-29T07:09:31.739Z,15.10
2022-11-29T07:12:00.442Z,16.10
2022-11-29T07:14:29.128Z,16.08
2022-11-29T07:17:08.501Z,16.60
2022-11-29T07:19:46.089Z,17.70
2022-11-29T07:22:30.316Z,15.82
2022-11-29T07:25:04.377Z,15.48
2022-11-29T07:27:42.734Z,16.20
2022-11-29T07:30:15.367Z,18.33
2022-11-29T07:33:00.345Z,17.70
2022-11-29T07:35:34.788Z,17.63
2022-11-29T07:38:11.093Z,17.63
2022-11-29T07:40:45.898Z,18.60
2022-11-29T07:43:28.612Z,18.63
2022-11-29T07:45:57.463Z,18.58
2022-11-29T07:48:27.078Z,15.98
2022-11-29T07:50:58.094Z,15.82
2022-11-29T07:53:26.629Z,14.45
2022-11-29T07:55:56.243Z,13.57
2022-11-29T07:58:25.087Z,14.45
2022-11-29T08:00:53.183Z,14.68
2022-11-29T08:03:21.159Z,16.90
2022-11-29T08:05:49.628Z,14.15
2022-11-29T08:08:17.827Z,15.45
2022-11-29T08:10:46.553Z,14.25
2022-11-29T08:13:16.180Z,13.90
2022-11-29T08:15:47.798Z,11.85
2022-11-29T08:18:17.195Z,12.57
2022-11-29T08:20:46.423Z,13.02
2022-11-29T08:23:15.140Z,14.52
2022-11-29T08:25:43.752Z,14.15
2022-11-29T08:28:11.842Z,15.35
2022-11-29T08:30:45.446Z,13.93
2022-11-29T08:33:14.533Z,13.93
2022-11-29T08:35:42.598Z,14.40
2022-11-29T08:38:10.671Z,14.70
2022-11-29T08:40:38.750Z,11.05
2022-11-29T08:43:06.799Z,12.48
2022-11-29T08:45:34.920Z,13.00
2022-11-29T08:48:04.460Z,11.25
2022-11-29T08:50:32.558Z,10.95
2022-11-29T08:53:18.979Z,12.75
2022-11-29T08:55:47.043Z,13.07
2022-11-29T08:58:16.611Z,11.57
2022-11-29T09:00:47.269Z,11.73
2022-11-29T09:03:34.624Z,12.07
2022-11-29T09:06:11.980Z,12.13
2022-11-29T09:08:43.373Z,12.45
2022-11-29T09:11:15.616Z,13.88
2022-11-29T09:13:45.752Z,14.07
2022-11-29T09:16:18.057Z,12.63
2022-11-29T09:18:51.844Z,14.50
2022-11-29T09:21:20.633Z,15.65
2022-11-29T09:23:48.661Z,15.82
2022-11-29T09:26:18.922Z,12.70
2022-11-29T09:28:49.362Z,14.57
2022-11-29T09:31:20.340Z,14.85
2022-11-29T09:33:50.174Z,13.35
2022-11-29T09:36:18.329Z,13.30
2022-11-29T09:38:46.343Z,13.35
2022-11-29T09:41:33.518Z,13.80
2022-11-29T09:44:11.046Z,13.38
2022-11-29T09:46:58.573Z,15.10
2022-11-29T09:49:52.033Z,14.63
2022-11-29T09:52:35.440Z,13.88
2022-11-29T09:55:11.228Z,14.48
2022-11-29T09:57:43.979Z,14.98
2022-11-29T10:00:17.374Z,14.35
2022-11-29T10:02:49.110Z,15.40
2022-11-29T10:05:23.066Z,14.57
2022-11-29T10:07:57.872Z,14.38
2022-11-29T10:10:30.710Z,16.35
2022-11-29T10:13:03.199Z,14.07
2022-11-29T10:15:35.509Z,15.80
2022-11-29T10:18:08.201Z,15.57
2022-11-29T10:20:49.064Z,14.95
2022-11-29T10:23:24.786Z,16.67
2022-11-29T10:25:55.321Z,14.52
2022-11-29T10:28:32.273Z,14.13
2022-11-29T10:31:07.334Z,13.80
2022-11-29T10:33:38.198Z,14.90
2022-11-29T10:36:17.814Z,14.32
2022-11-29T10:38:47.770Z,13.35
2022-11-29T10:41:21.672Z,13.85
2022-11-29T10:43:51.173Z,12.98
2022-11-29T10:46:29.108Z,14.63
2022-11-29T10:48:59.112Z,14.05
2022-11-29T10:51:30.910Z,13.63
2022-11-29T10:54:14.105Z,13.75
2022-11-29T10:56:42.906Z,13.30
2022-11-29T10:59:21.610Z,13.68
2022-11-29T11:01:50.065Z,14.20
2022-11-29T11:04:26.763Z,14.80
2022-11-29T11:06:57.940Z,14.18
2022-11-29T11:09:32.148Z,11.85
2022-11-29T11:12:02.286Z,11.63
2022-11-29T11:14:34.753Z,12.05
2022-11-29T11:17:18.028Z,12.35
2022-11-29T11:19:55.923Z,13.52
2022-11-29T11:22:28.425Z,11.68
2022-11-29T11:25:01.964Z,12.57
2022-11-29T11:27:35.741Z,12.02
2022-11-29T11:30:05.623Z,12.15
2022-11-29T11:32:33.736Z,10.90
2022-11-29T11:35:03.253Z,10.40
2022-11-29T11:37:35.856Z,12.05
2022-11-29T11:40:27.382Z,12.63
2022-11-29T11:43:00.232Z,11.38
2022-11-29T11:45:35.139Z,11.88
2022-11-29T11:48:06.871Z,11.70
2022-11-29T11:50:38.624Z,11.52
2022-11-29T11:53:21.222Z,11.10
2022-11-29T11:55:57.229Z,11.55
2022-11-29T11:58:27.813Z,12.35
2022-11-29T12:01:06.271Z,11.20
2022-11-29T12:03:46.323Z,11.88
2022-11-29T12:06:41.223Z,13.02
2022-11-29T12:09:19.492Z,12.60
2022-11-29T12:12:00.220Z,11.63
2022-11-29T12:14:37.763Z,14.05
2022-11-29T12:17:16.969Z,13.60
2022-11-29T12:19:56.861Z,14.23
2022-11-29T12:22:28.610Z,14.82
2022-11-29T12:25:25.651Z,16.50
2022-11-29T12:27:54.753Z,15.88
2022-11-29T12:30:22.934Z,15.07
2022-11-29T12:33:07.518Z,16.48
2022-11-29T12:35:52.612Z,16.55
2022-11-29T12:38:35.691Z,15.55
2022-11-29T12:41:19.225Z,18.08
2022-11-29T12:43:58.320Z,17.60
2022-11-29T12:46:34.265Z,17.15
2022-11-29T12:49:11.258Z,18.23
2022-11-29T12:51:48.562Z,18.30
2022-11-29T12:54:34.584Z,17.67
2022-11-29T12:57:12.812Z,16.38
2022-11-29T13:00:04.611Z,16.30
2022-11-29T13:02:44.250Z,16.10
2022-11-29T13:05:21.293Z,14.98
2022-11-29T13:08:05.322Z,16.55
2022-11-29T13:10:54.409Z,13.43
2022-11-29T13:13:32.279Z,12.45
2022-11-29T13:16:07.173Z,12.98
2022-11-29T13:18:39.719Z,12.15
2022-11-29T13:21:14.320Z,11.80
2022-11-29T13:26:41.167Z,13.35
2022-11-29T13:29:15.745Z,13.18
2022-11-29T13:31:45.118Z,13.60
2022-11-29T13:34:17.415Z,13.80
2022-11-29T13:36:54.533Z,14.52
2022-11-29T13:39:40.062Z,14.80
2022-11-29T13:42:14.854Z,16.37
2022-11-29T13:44:52.887Z,15.93
2022-11-29T13:47:21.840Z,17.70
2022-11-29T13:50:02.745Z,19.58
2022-11-29T13:52:40.647Z,19.55
2022-11-29T13:55:23.210Z,19.30
2022-11-29T13:58:15.319Z,19.85
2022-11-29T14:00:52.404Z,19.77
2022-11-29T14:03:32.207Z,18.65
2022-11-29T14:06:18.592Z,19.35
2022-11-29T14:09:25.111Z,19.70
2022-11-29T14:12:02.864Z,19.40
2022-11-29T14:14:37.411Z,18.83
2022-11-29T14:17:27.519Z,20.30
2022-11-29T14:20:34.419Z,21.15
2022-11-29T14:23:16.714Z,19.00
2022-11-29T14:26:28.760Z,20.42
2022-11-29T14:29:01.737Z,20.85
2022-11-29T14:31:52.548Z,19.98
2022-11-29T14:34:39.833Z,18.85
2022-11-29T14:37:21.399Z,19.40
2022-11-29T14:39:52.539Z,19.90
2022-11-29T14:42:22.771Z,20.15
2022-11-29T14:44:52.817Z,20.63
2022-11-29T14:47:29.977Z,20.77
2022-11-29T14:50:03.862Z,22.00
2022-11-29T14:52:34.690Z,19.70
2022-11-29T14:55:09.842Z,19.58
2022-11-29T14:58:19.517Z,20.00
2022-11-29T15:01:01.784Z,17.75
2022-11-29T15:03:37.920Z,18.67
2022-11-29T15:06:15.872Z,19.08
2022-11-29T15:08:55.280Z,18.88
2022-11-29T15:11:35.149Z,18.02
2022-11-29T15:14:16.986Z,18.00
2022-11-29T15:17:17.559Z,19.33
2022-11-29T15:20:03.056Z,18.27
2022-11-29T15:22:46.438Z,18.67
2022-11-29T15:25:47.760Z,17.60
2022-11-29T15:28:23.390Z,18.02
2022-11-29T15:31:03.599Z,18.92
2022-11-29T15:33:35.570Z,17.30
2022-11-29T15:36:07.406Z,18.90
2022-11-29T15:38:45.860Z,19.10
2022-11-29T15:41:20.656Z,19.85
2022-11-29T15:43:52.487Z,18.55
2022-11-29T15:46:22.050Z,17.50
2022-11-29T15:48:50.167Z,18.92
2022-11-29T15:51:26.653Z,20.58
2022-11-29T15:54:12.784Z,19.88
2022-11-29T15:56:46.138Z,19.92
2022-11-29T15:59:22.736Z,19.63
2022-11-29T16:01:54.533Z,23.48
2022-11-29T16:04:24.525Z,22.98
2022-11-29T16:06:55.027Z,26.67
2022-11-29T16:09:35.705Z,32.17
2022-11-29T16:12:05.553Z,31.60
2022-11-29T16:14:34.336Z,30.42
2022-11-29T16:17:05.803Z,28.08
2022-11-29T16:19:36.991Z,24.70
2022-11-29T16:22:25.918Z,26.17
2022-11-29T16:25:04.581Z,23.58
2022-11-29T16:27:34.409Z,22.77
2022-11-29T16:30:03.672Z,22.70
2022-11-29T16:32:37.013Z,24.15
2022-11-29T16:35:14.078Z,22.75
2022-11-29T16:37:45.961Z,22.70
2022-11-29T16:40:24.260Z,24.05
2022-11-29T16:43:08.794Z,22.50
2022-11-29T16:45:38.536Z,21.67
2022-11-29T16:48:32.271Z,22.52
2022-11-29T16:51:25.040Z,21.67
2022-11-29T16:53:57.856Z,19.92
2022-11-29T16:56:30.188Z,21.00
2022-11-29T16:59:20.589Z,20.40
2022-11-29T17:01:55.466Z,20.25
2022-11-29T17:04:25.165Z,21.40
2022-11-29T17:06:58.368Z,19.75
2022-11-29T17:09:28.602Z,21.15
2022-11-29T17:11:59.941Z,21.08
2022-11-29T17:14:28.421Z,21.08
2022-11-29T17:17:00.933Z,21.50
2022-11-29T17:19:30.355Z,19.73
2022-11-29T17:21:58.455Z,20.27
2022-11-29T17:24:26.554Z,20.88
2022-11-29T17:26:54.584Z,19.77
2022-11-29T17:29:27.988Z,20.30
2022-11-29T17:31:56.125Z,20.75
2022-11-29T17:34:24.344Z,21.48
2022-11-29T17:36:52.586Z,21.50
2022-11-29T17:39:21.856Z,21.42
2022-11-29T17:41:50.062Z,20.83
2022-11-29T17:44:18.203Z,22.58
2022-11-29T17:47:15.565Z,21.33
2022-11-29T17:49:44.008Z,24.83
2022-11-29T17:52:12.469Z,22.50
2022-11-29T17:54:40.529Z,30.00
2022-11-29T17:57:08.919Z,28.13
2022-11-29T17:59:37.310Z,31.95
2022-11-29T18:02:05.932Z,35.03
2022-11-29T18:04:36.191Z,58.30
2022-11-29T18:07:06.296Z,48.80
2022-11-29T18:09:34.467Z,45.45
2022-11-29T18:12:02.912Z,47.58
2022-11-29T18:14:31.685Z,49.47
2022-11-29T18:17:00.173Z,50.05
2022-11-29T18:19:30.689Z,52.63
2022-11-29T18:22:01.288Z,53.60
2022-11-29T18:24:29.800Z,54.70
2022-11-29T18:26:58.547Z,50.13
2022-11-29T18:29:28.111Z,48.05
2022-11-29T18:31:59.046Z,45.03
2022-11-29T18:34:27.276Z,45.58
2022-11-29T18:36:55.805Z,48.28
2022-11-29T18:39:25.418Z,48.85
2022-11-29T18:41:53.872Z,46.30
2022-11-29T18:44:24.422Z,45.20
2022-11-29T18:46:52.618Z,37.63
2022-11-29T18:49:20.968Z,38.45
2022-11-29T18:51:50.558Z,37.28
2022-11-29T18:54:20.914Z,38.70
2022-11-29T18:56:52.007Z,36.38
2022-11-29T18:59:22.064Z,37.15
2022-11-29T19:01:51.029Z,36.45
2022-11-29T19:04:21.574Z,36.80
2022-11-29T19:06:50.281Z,37.38
2022-11-29T19:09:21.308Z,29.63
2022-11-29T19:11:51.384Z,26.10
2022-11-29T19:14:20.440Z,26.02
2022-11-29T19:16:50.052Z,25.58
2022-11-29T19:19:19.959Z,22.90
2022-11-29T19:21:48.855Z,26.00
2022-11-29T19:24:18.751Z,26.38
2022-11-29T19:26:55.768Z,24.75
2022-11-29T19:29:24.097Z,25.60
2022-11-29T19:31:52.456Z,25.20
2022-11-29T19:34:20.722Z,24.85
2022-11-29T19:36:49.176Z,24.75
2022-11-29T19:39:18.754Z,33.08
2022-11-29T19:41:48.515Z,35.47
2022-11-29T19:44:18.438Z,40.90
2022-11-29T19:46:48.801Z,41.08
2022-11-29T19:49:17.329Z,39.28
2022-11-29T19:51:45.680Z,40.42
2022-11-29T19:54:13.786Z,38.17
2022-11-29T19:56:42.167Z,60.38
2022-11-29T19:59:11.591Z,66.05
2022-11-29T20:01:43.817Z,62.90
2022-11-29T20:04:13.493Z,52.58
2022-11-29T20:06:42.334Z,52.88
2022-11-29T20:09:14.702Z,52.88
2022-11-29T20:11:45.033Z,52.20
2022-11-29T20:14:14.710Z,52.00
2022-11-29T20:16:44.265Z,55.13
2022-11-29T20:19:14.223Z,54.80
2022-11-29T20:21:44.471Z,52.47
2022-11-29T20:24:14.453Z,50.20
2022-11-29T20:26:44.725Z,48.58
2022-11-29T20:29:14.160Z,44.28
2022-11-29T20:31:50.505Z,44.03
2022-11-29T20:34:20.491Z,37.53
2022-11-29T20:37:07.387Z,35.45
2022-11-29T20:39:42.131Z,34.58
2022-11-29T20:42:40.185Z,32.20
2022-11-29T20:45:10.221Z,28.20
2022-11-29T20:47:50.238Z,30.95
2022-11-29T20:50:23.526Z,28.85
2022-11-29T20:53:11.071Z,31.23
2022-11-29T20:55:46.311Z,31.38
2022-11-29T20:58:17.691Z,31.75
2022-11-29T21:00:46.792Z,32.30
2022-11-29T21:03:16.871Z,33.38
2022-11-29T21:05:51.552Z,36.15
2022-11-29T21:08:22.263Z,37.88
2022-11-29T21:10:51.054Z,39.50
2022-11-29T21:13:21.473Z,40.55
2022-11-29T21:15:52.164Z,39.10
2022-11-29T21:18:26.910Z,41.55
2022-11-29T21:21:05.391Z,41.53
2022-11-29T21:23:43.994Z,42.10
2022-11-29T21:26:17.733Z,44.75
2022-11-29T21:28:56.875Z,49.28
2022-11-29T21:31:25.358Z,52.72
2022-11-29T21:33:55.832Z,49.88
2022-11-29T21:36:25.037Z,46.63
2022-11-29T21:38:55.296Z,46.08
2022-11-29T21:41:23.710Z,47.33
2022-11-29T21:44:06.203Z,42.28
2022-11-29T21:46:35.217Z,42.58
2022-11-29T21:49:06.028Z,40.55
2022-11-29T21:51:34.019Z,36.92
2022-11-29T21:54:03.333Z,36.65
2022-11-29T21:56:31.507Z,41.65
2022-11-29T21:58:59.522Z,41.33
2022-11-29T22:01:28.267Z,41.90
2022-11-29T22:03:56.303Z,34.95
2022-11-29T22:06:26.412Z,35.00
2022-11-29T22:08:55.452Z,38.22
2022-11-29T22:11:31.952Z,35.45
2022-11-29T22:14:18.028Z,35.53
2022-11-29T22:16:48.424Z,33.88
2022-11-29T22:19:17.909Z,31.83
2022-11-29T22:21:49.020Z,22.15
2022-11-29T22:24:19.397Z,16.42
2022-11-29T22:26:47.761Z,21.35
2022-11-29T22:29:16.129Z,19.25
2022-11-29T22:31:46.914Z,16.85
2022-11-29T22:34:15.354Z,16.55
2022-11-29T22:36:47.624Z,16.30
2022-11-29T22:39:17.939Z,15.15
2022-11-29T22:41:52.220Z,15.23
2022-11-29T22:44:25.946Z,16.35
2022-11-29T22:46:54.012Z,14.75
2022-11-29T22:49:22.085Z,15.48
2022-11-29T22:51:50.193Z,15.77
2022-11-29T22:54:20.436Z,14.38
2022-11-29T22:56:49.523Z,14.25
2022-11-29T22:59:17.609Z,14.50
2022-11-29T23:01:45.684Z,14.13
2022-11-29T23:04:14.095Z,14.10
2022-11-29T23:06:44.425Z,11.52
2022-11-29T23:09:16.755Z,13.15
2022-11-29T23:11:51.017Z,13.13
2022-11-29T23:14:19.250Z,13.93
2022-11-29T23:16:47.519Z,14.18
2022-11-29T23:19:17.337Z,14.95
2022-11-29T23:21:46.371Z,14.02
2022-11-29T23:24:14.795Z,13.55
2022-11-29T23:26:47.207Z,14.05
2022-11-29T23:29:17.444Z,12.15
2022-11-29T23:31:46.703Z,12.82
2022-11-29T23:34:15.003Z,14.20
2022-11-29T23:36:49.633Z,12.80
2022-11-29T23:39:22.677Z,12.30
2022-11-29T23:41:52.075Z,13.95
2022-11-29T23:44:20.094Z,12.95
2022-11-29T23:46:48.160Z,13.45
2022-11-29T23:49:16.165Z,13.60
2022-11-29T23:51:44.177Z,13.88
2022-11-29T23:54:12.364Z,14.63
2022-11-29T23:56:40.479Z,14.50
2022-11-29T23:59:09.833Z,14.13
